Heroic Leader — C6ZD2 — position and weather

sailwx.info

Track history (hours):
 
Tides and Currents Weather Stations Pressure Air Temp Water Temp Dewpoint Dewpoint Depression Visibility Wind Speed Wind Dir Waves Ship Positions

Heroic Leader

Last reported at 2016-Feb-13 05:32 UTC. Time now 2016-Feb-14 21:02 UTC.
Position N 36°55' W 000°55'.

Length 200 m; draft 9.2 m.

Type: Cargo ship. MMSI: 311052700.

Date/timePositionNaut miles runAvg speedWind from/ knotsBaromVisibWave heightAir tempDewpointWater temp
2016-Feb-13 05:32N 36°55' W 000°55'9 8.9
2016-Feb-13 04:33N 36°59' W 000°45'12 9.1
2016-Feb-13 03:12N 37°06' W 000°32'8 9.6
2016-Feb-13 02:20N 37°10' W 000°24'8 9.9
2016-Feb-13 01:33N 37°15' W 000°15'1010.1
2016-Feb-13 00:33N 37°20' W 000°05'1010.4
2016-Feb-12 23:33N 37°26' E 000°06'1110.5
2016-Feb-12 22:33N 37°31' E 000°17'1212.1
2016-Feb-12 21:33N 37°38' E 000°30'2813.8
2016-Feb-12 19:33N 37°54' E 000°59'7013.7
2016-Feb-12 14:29N 38°31' E 002°14'1314.2
2016-Feb-12 13:32N 38°38' E 002°28'1313.5
2016-Feb-12 12:33N 38°45' E 002°42'1414.1
2016-Feb-12 11:33N 38°53' E 002°57'1414.3
2016-Feb-12 10:33N 39°01' E 003°13'1514.8
2016-Feb-12 09:33N 39°09' E 003°29'2014.5
2016-Feb-12 08:10N 39°20' E 003°50'33414.7
2016-Feb-11 09:28N 43°09' E 009°15'1718.3
2016-Feb-11 08:33N 43°15' E 009°36'1818.3
2016-Feb-11 07:34N 43°20' E 009°60'1615.5
2016-Feb-11 06:34N 43°32' E 010°15'4 3.9
2016-Feb-11 05:31N 43°35' E 010°18'0 0.0
2016-Feb-11 04:31N 43°35' E 010°18'0 0.0
2016-Feb-11 03:31N 43°35' E 010°18'0 0.0
2016-Feb-11 02:31N 43°35' E 010°18'0 0.0
2016-Feb-11 01:31N 43°35' E 010°18'0 0.0
2016-Feb-11 00:31N 43°35' E 010°18'0 0.0
2016-Feb-10 23:31N 43°35' E 010°18'0 0.0
2016-Feb-10 22:31N 43°35' E 010°18'0 0.0
2016-Feb-10 21:31N 43°35' E 010°18'0 0.0
2016-Feb-10 20:31N 43°35' E 010°18'0 0.0
2016-Feb-10 19:31N 43°35' E 010°18'0 0.0
2016-Feb-10 18:31N 43°35' E 010°18'0 0.0
2016-Feb-10 17:31N 43°35' E 010°18'0 0.0
2016-Feb-10 16:31N 43°35' E 010°18'0 0.0
2016-Feb-10 15:33N 43°35' E 010°18'0 0.0
2016-Feb-10 14:30N 43°35' E 010°18'0 0.0
2016-Feb-10 13:30N 43°35' E 010°18'0 0.0
2016-Feb-10 12:31N 43°35' E 010°18'0 0.0
2016-Feb-10 11:31N 43°35' E 010°18'0 0.0
2016-Feb-10 10:31N 43°35' E 010°18'0 0.0
2016-Feb-10 09:31N 43°35' E 010°18'0 0.0
2016-Feb-10 08:33N 43°35' E 010°18'0 0.0
2016-Feb-10 07:30N 43°35' E 010°18'0 0.0
2016-Feb-10 06:34N 43°35' E 010°18'0 0.0
2016-Feb-10 05:34N 43°35' E 010°18'0 0.0
2016-Feb-10 04:34N 43°35' E 010°18'0 0.0
2016-Feb-10 03:34N 43°35' E 010°18'0 0.0
2016-Feb-10 02:31N 43°35' E 010°18'0 0.0
2016-Feb-10 01:31N 43°35' E 010°18'0 0.0
2016-Feb-10 00:34N 43°35' E 010°18'0 0.0
2016-Feb-09 23:33N 43°35' E 010°18'0 0.0
2016-Feb-09 22:33N 43°35' E 010°18'0 0.0
2016-Feb-09 21:33N 43°35' E 010°18'0 0.0
2016-Feb-09 20:34N 43°35' E 010°18'0 0.0
2016-Feb-09 19:33N 43°35' E 010°18'0 0.0
2016-Feb-09 18:33N 43°35' E 010°18'0 0.0
2016-Feb-09 17:34N 43°35' E 010°18'0 0.0
2016-Feb-09 16:33N 43°35' E 010°18'0 0.0
2016-Feb-09 15:33N 43°35' E 010°18'0 0.0
2016-Feb-09 14:34N 43°35' E 010°18'0 0.0
2016-Feb-09 13:33N 43°35' E 010°18'0 0.0
2016-Feb-09 12:33N 43°35' E 010°18'0 0.0
2016-Feb-09 11:33N 43°35' E 010°18'0 0.0
2016-Feb-09 10:33N 43°35' E 010°18'0 0.0
2016-Feb-09 09:33N 43°35' E 010°18'0 0.0
2016-Feb-09 08:33N 43°35' E 010°18'0 0.0
2016-Feb-09 07:33N 43°35' E 010°18'0 0.0
2016-Feb-09 06:34N 43°35' E 010°18'0 0.0
2016-Feb-09 05:33N 43°35' E 010°18'0 0.0
2016-Feb-09 04:34N 43°35' E 010°18'0 0.0
2016-Feb-09 03:33N 43°35' E 010°18'0 0.0
2016-Feb-09 02:34N 43°35' E 010°18'0 0.0
2016-Feb-09 01:33N 43°35' E 010°18'0 0.0
2016-Feb-09 00:33N 43°35' E 010°18'0 0.0
2016-Feb-08 23:33N 43°35' E 010°18'0 0.0
2016-Feb-08 22:33N 43°35' E 010°18'0 0.0
2016-Feb-08 21:33N 43°35' E 010°18'0 0.0
2016-Feb-08 20:33N 43°35' E 010°18'0 0.0
2016-Feb-08 19:33N 43°35' E 010°18'0 0.0
2016-Feb-08 18:33N 43°35' E 010°18'0 0.5
2016-Feb-08 17:33N 43°34' E 010°18'7 6.7
2016-Feb-08 16:33N 43°28' E 010°14'2 2.1
2016-Feb-08 15:33N 43°27' E 010°16'1 1.4
2016-Feb-08 14:33N 43°26' E 010°18'1 1.4
2016-Feb-08 13:33N 43°27' E 010°16'1 0.7
2016-Feb-08 12:33N 43°28' E 010°17'1 0.8
2016-Feb-08 11:33N 43°28' E 010°16'2 1.9
2016-Feb-08 10:33N 43°28' E 010°14'1 1.2
2016-Feb-08 09:33N 43°27' E 010°14'1 0.9
2016-Feb-08 08:33N 43°28' E 010°15'9 8.8
2016-Feb-08 07:33N 43°20' E 010°10'1111.2
2016-Feb-08 06:32N 43°09' E 010°05'35313.6
2016-Feb-07 04:31N 38°49' E 015°23'1616.7
2016-Feb-07 03:32N 38°35' E 015°32'2713.6
2016-Feb-07 01:33N 38°08' E 015°36'1713.6
2016-Feb-07 00:16N 37°51' E 015°42'1014.2
2016-Feb-06 23:32N 37°47' E 015°54'37313.3
2016-Feb-05 19:31N 37°29' E 023°44'1515.8
2016-Feb-05 18:34N 37°43' E 023°40'1313.2
2016-Feb-05 17:33N 37°56' E 023°37'2 1.4
2016-Feb-05 16:28N 37°58' E 023°36'0 0.0
2016-Feb-05 15:28N 37°58' E 023°36'0 0.0
2016-Feb-05 14:31N 37°58' E 023°36'0 0.0
2016-Feb-05 13:31N 37°58' E 023°36'0 0.0
2016-Feb-05 12:31N 37°58' E 023°36'0 0.0
2016-Feb-05 11:31N 37°58' E 023°36'2 2.4
2016-Feb-05 10:33N 37°55' E 023°37'0 0.2
2016-Feb-05 09:33N 37°55' E 023°37'3 2.9
2016-Feb-05 08:33N 37°52' E 023°36'4 4.0
2016-Feb-05 07:33N 37°50' E 023°40'8 7.7
2016-Feb-05 06:33N 37°43' E 023°44'1010.1
2016-Feb-05 05:33N 37°36' E 023°53'89 9.4
2016-Feb-04 20:03N 36°18' E 024°47'4014.5
2016-Feb-04 17:18N 35°55' E 025°28'1515.7
2016-Feb-04 16:20N 35°48' E 025°44'  
Track history (hours):
 
Tides and Currents Weather Stations Pressure Air Temp Water Temp Dewpoint Dewpoint Depression Visibility Wind Speed Wind Dir Waves Ship Positions

Heroic Leader

Last reported at 2016-Feb-13 05:32 UTC. Time now 2016-Feb-14 21:02 UTC.
Position N 36°55' W 000°55'.

Length 200 m; draft 9.2 m.

Type: Cargo ship. MMSI: 311052700.

Date/timePositionNaut miles runAvg speedWind from/ knotsBaromVisibWave heightAir tempDewpointWater temp
2016-Feb-13 05:32N 36°55' W 000°55'9 8.9
2016-Feb-13 04:33N 36°59' W 000°45'12 9.1
2016-Feb-13 03:12N 37°06' W 000°32'8 9.6
2016-Feb-13 02:20N 37°10' W 000°24'8 9.9
2016-Feb-13 01:33N 37°15' W 000°15'1010.1
2016-Feb-13 00:33N 37°20' W 000°05'1010.4
2016-Feb-12 23:33N 37°26' E 000°06'1110.5
2016-Feb-12 22:33N 37°31' E 000°17'1212.1
2016-Feb-12 21:33N 37°38' E 000°30'2813.8
2016-Feb-12 19:33N 37°54' E 000°59'7013.7
2016-Feb-12 14:29N 38°31' E 002°14'1314.2
2016-Feb-12 13:32N 38°38' E 002°28'1313.5
2016-Feb-12 12:33N 38°45' E 002°42'1414.1
2016-Feb-12 11:33N 38°53' E 002°57'1414.3
2016-Feb-12 10:33N 39°01' E 003°13'1514.8
2016-Feb-12 09:33N 39°09' E 003°29'2014.5
2016-Feb-12 08:10N 39°20' E 003°50'33414.7
2016-Feb-11 09:28N 43°09' E 009°15'1718.3
2016-Feb-11 08:33N 43°15' E 009°36'1818.3
2016-Feb-11 07:34N 43°20' E 009°60'1615.5
2016-Feb-11 06:34N 43°32' E 010°15'4 3.9
2016-Feb-11 05:31N 43°35' E 010°18'0 0.0
2016-Feb-11 04:31N 43°35' E 010°18'0 0.0
2016-Feb-11 03:31N 43°35' E 010°18'0 0.0
2016-Feb-11 02:31N 43°35' E 010°18'0 0.0
2016-Feb-11 01:31N 43°35' E 010°18'0 0.0
2016-Feb-11 00:31N 43°35' E 010°18'0 0.0
2016-Feb-10 23:31N 43°35' E 010°18'0 0.0
2016-Feb-10 22:31N 43°35' E 010°18'0 0.0
2016-Feb-10 21:31N 43°35' E 010°18'0 0.0
2016-Feb-10 20:31N 43°35' E 010°18'0 0.0
2016-Feb-10 19:31N 43°35' E 010°18'0 0.0
2016-Feb-10 18:31N 43°35' E 010°18'0 0.0
2016-Feb-10 17:31N 43°35' E 010°18'0 0.0
2016-Feb-10 16:31N 43°35' E 010°18'0 0.0
2016-Feb-10 15:33N 43°35' E 010°18'0 0.0
2016-Feb-10 14:30N 43°35' E 010°18'0 0.0
2016-Feb-10 13:30N 43°35' E 010°18'0 0.0
2016-Feb-10 12:31N 43°35' E 010°18'0 0.0
2016-Feb-10 11:31N 43°35' E 010°18'0 0.0
2016-Feb-10 10:31N 43°35' E 010°18'0 0.0
2016-Feb-10 09:31N 43°35' E 010°18'0 0.0
2016-Feb-10 08:33N 43°35' E 010°18'0 0.0
2016-Feb-10 07:30N 43°35' E 010°18'0 0.0
2016-Feb-10 06:34N 43°35' E 010°18'0 0.0
2016-Feb-10 05:34N 43°35' E 010°18'0 0.0
2016-Feb-10 04:34N 43°35' E 010°18'0 0.0
2016-Feb-10 03:34N 43°35' E 010°18'0 0.0
2016-Feb-10 02:31N 43°35' E 010°18'0 0.0
2016-Feb-10 01:31N 43°35' E 010°18'0 0.0
2016-Feb-10 00:34N 43°35' E 010°18'0 0.0
2016-Feb-09 23:33N 43°35' E 010°18'0 0.0
2016-Feb-09 22:33N 43°35' E 010°18'0 0.0
2016-Feb-09 21:33N 43°35' E 010°18'0 0.0
2016-Feb-09 20:34N 43°35' E 010°18'0 0.0
2016-Feb-09 19:33N 43°35' E 010°18'0 0.0
2016-Feb-09 18:33N 43°35' E 010°18'0 0.0
2016-Feb-09 17:34N 43°35' E 010°18'0 0.0
2016-Feb-09 16:33N 43°35' E 010°18'0 0.0
2016-Feb-09 15:33N 43°35' E 010°18'0 0.0
2016-Feb-09 14:34N 43°35' E 010°18'0 0.0
2016-Feb-09 13:33N 43°35' E 010°18'0 0.0
2016-Feb-09 12:33N 43°35' E 010°18'0 0.0
2016-Feb-09 11:33N 43°35' E 010°18'0 0.0
2016-Feb-09 10:33N 43°35' E 010°18'0 0.0
2016-Feb-09 09:33N 43°35' E 010°18'0 0.0
2016-Feb-09 08:33N 43°35' E 010°18'0 0.0
2016-Feb-09 07:33N 43°35' E 010°18'0 0.0
2016-Feb-09 06:34N 43°35' E 010°18'0 0.0
2016-Feb-09 05:33N 43°35' E 010°18'0 0.0
2016-Feb-09 04:34N 43°35' E 010°18'0 0.0
2016-Feb-09 03:33N 43°35' E 010°18'0 0.0
2016-Feb-09 02:34N 43°35' E 010°18'0 0.0
2016-Feb-09 01:33N 43°35' E 010°18'0 0.0
2016-Feb-09 00:33N 43°35' E 010°18'0 0.0
2016-Feb-08 23:33N 43°35' E 010°18'0 0.0
2016-Feb-08 22:33N 43°35' E 010°18'0 0.0
2016-Feb-08 21:33N 43°35' E 010°18'0 0.0
2016-Feb-08 20:33N 43°35' E 010°18'0 0.0
2016-Feb-08 19:33N 43°35' E 010°18'0 0.0
2016-Feb-08 18:33N 43°35' E 010°18'0 0.5
2016-Feb-08 17:33N 43°34' E 010°18'7 6.7
2016-Feb-08 16:33N 43°28' E 010°14'2 2.1
2016-Feb-08 15:33N 43°27' E 010°16'1 1.4
2016-Feb-08 14:33N 43°26' E 010°18'1 1.4
2016-Feb-08 13:33N 43°27' E 010°16'1 0.7
2016-Feb-08 12:33N 43°28' E 010°17'1 0.8
2016-Feb-08 11:33N 43°28' E 010°16'2 1.9
2016-Feb-08 10:33N 43°28' E 010°14'1 1.2
2016-Feb-08 09:33N 43°27' E 010°14'1 0.9
2016-Feb-08 08:33N 43°28' E 010°15'9 8.8
2016-Feb-08 07:33N 43°20' E 010°10'1111.2
2016-Feb-08 06:32N 43°09' E 010°05'35313.6
2016-Feb-07 04:31N 38°49' E 015°23'1616.7
2016-Feb-07 03:32N 38°35' E 015°32'2713.6
2016-Feb-07 01:33N 38°08' E 015°36'1713.6
2016-Feb-07 00:16N 37°51' E 015°42'1014.2
2016-Feb-06 23:32N 37°47' E 015°54'37313.3
2016-Feb-05 19:31N 37°29' E 023°44'1515.8
2016-Feb-05 18:34N 37°43' E 023°40'1313.2
2016-Feb-05 17:33N 37°56' E 023°37'2 1.4
2016-Feb-05 16:28N 37°58' E 023°36'0 0.0
2016-Feb-05 15:28N 37°58' E 023°36'0 0.0
2016-Feb-05 14:31N 37°58' E 023°36'0 0.0
2016-Feb-05 13:31N 37°58' E 023°36'0 0.0
2016-Feb-05 12:31N 37°58' E 023°36'0 0.0
2016-Feb-05 11:31N 37°58' E 023°36'2 2.4
2016-Feb-05 10:33N 37°55' E 023°37'0 0.2
2016-Feb-05 09:33N 37°55' E 023°37'3 2.9
2016-Feb-05 08:33N 37°52' E 023°36'4 4.0
2016-Feb-05 07:33N 37°50' E 023°40'8 7.7
2016-Feb-05 06:33N 37°43' E 023°44'1010.1
2016-Feb-05 05:33N 37°36' E 023°53'89 9.4
2016-Feb-04 20:03N 36°18' E 024°47'4014.5
2016-Feb-04 17:18N 35°55' E 025°28'1515.7
2016-Feb-04 16:20N 35°48' E 025°44'  

Dump ship's entire track history